Time;durP1;ratioP1;P1;durP2;ratioP2;P2;SDS_P1;SDS_P2;PMS_P1;PMS_P2;Temp;Humidity;BMP_temperature;BMP_pressure;BME280_temperature;BME280_humidity;BME280_pressure;Samples;Min_cycle;Max_cycle;Signal;HPM_P1;HPM_P2
2021/08/25 02:47:31;;;;;;;;;;;12.10;99.90;;;;;;5;36060155;41314103;-88
2021/08/25 02:50:45;;;;;;;;;;;12.20;99.90;;;;;;5;36015362;41266941;-88
2021/08/25 02:54:02;;;;;;;;;;;12.00;99.90;;;;;;5;36016287;41267312;-88
2021/08/25 02:57:21;;;;;;;;;;;12.00;99.90;;;;;;5;36013949;41267078;-88
2021/08/25 03:00:42;;;;;;;;;;;12.10;99.90;;;;;;5;36014056;42015253;-88
2021/08/25 03:03:56;;;;;;;;;;;12.00;99.90;;;;;;5;36014539;41265978;-87
2021/08/25 03:07:13;;;;;;;;;;;12.00;99.90;;;;;;5;36013936;41266719;-89
2021/08/25 03:10:33;;;;;;;;;;;12.00;99.90;;;;;;5;36013402;41266503;-88
2021/08/25 03:13:52;;;;;;;;;;;11.90;99.90;;;;;;5;36014244;41266395;-88
2021/08/25 03:17:07;;;;;;;;;;;11.90;99.90;;;;;;5;36014508;41265218;-89
2021/08/25 03:20:24;;;;;;;;;;;11.90;99.90;;;;;;5;36014412;41266201;-93
2021/08/25 03:23:43;;;;;;;;;;;11.80;99.90;;;;;;5;36013120;41266603;-94
2021/08/25 03:27:03;;;;;;;;;;;11.80;99.90;;;;;;5;36014747;41266368;-92
2021/08/25 03:30:17;;;;;;;;;;;11.80;99.90;;;;;;5;36013532;41265772;-87
2021/08/25 03:33:36;;;;;;;;;;;11.80;99.90;;;;;;5;36013346;42016316;-91
2021/08/25 03:36:55;;;;;;;;;;;11.50;99.90;;;;;;5;36013247;41266590;-91
2021/08/25 03:40:15;;;;;;;;;;;11.70;99.90;;;;;;5;36013859;41266149;-92
2021/08/25 03:43:29;;;;;;;;;;;11.70;99.90;;;;;;5;36013671;41266057;-91
2021/08/25 03:46:46;;;;;;;;;;;11.70;99.90;;;;;;5;36014731;41265388;-90
2021/08/25 03:50:06;;;;;;;;;;;11.60;99.90;;;;;;5;36014138;41266361;-93
2021/08/25 03:53:25;;;;;;;;;;;11.60;99.90;;;;;;5;36013567;41266016;-90
2021/08/25 03:56:40;;;;;;;;;;;11.50;99.90;;;;;;5;36013254;41265946;-90
2021/08/25 03:59:57;;;;;;;;;;;11.50;99.90;;;;;;5;36014638;41265124;-88
2021/08/25 04:03:16;;;;;;;;;;;11.50;99.90;;;;;;5;36017031;41266290;-89
2021/08/25 04:06:38;;;;;;;;;;;11.50;99.90;;;;;;5;36013413;42016127;-89
2021/08/25 04:09:52;;;;;;;;;;;11.50;99.90;;;;;;5;36013939;41265680;-89
2021/08/25 04:13:09;;;;;;;;;;;11.50;99.90;;;;;;5;36013234;41265707;-92
2021/08/25 04:16:29;;;;;;;;;;;11.50;99.90;;;;;;5;36015587;41267518;-92
2021/08/25 04:19:49;;;;;;;;;;;11.50;99.90;;;;;;5;36013937;41266399;-88
2021/08/25 04:23:03;;;;;;;;;;;11.50;99.90;;;;;;5;36014457;41265265;-89
2021/08/25 04:26:20;;;;;;;;;;;11.40;99.90;;;;;;5;36013017;41266754;-91
2021/08/25 04:29:39;;;;;;;;;;;11.40;99.90;;;;;;5;36013567;41267326;-87
2021/08/25 04:32:59;;;;;;;;;;;11.40;99.90;;;;;;5;36013644;41267047;-90
2021/08/25 04:36:13;;;;;;;;;;;11.40;99.90;;;;;;5;36016254;41266107;-90
2021/08/25 04:39:32;;;;;;;;;;;11.30;99.90;;;;;;5;36013873;42016177;-88
2021/08/25 04:42:51;;;;;;;;;;;11.30;99.90;;;;;;5;36013842;41266658;-92
2021/08/25 04:46:14;;;;;;;;;;;11.30;99.90;;;;;;5;36014380;41266043;-90
2021/08/25 04:49:29;;;;;;;;;;;11.40;99.90;;;;;;5;36014783;41267107;-94
2021/08/25 04:52:46;;;;;;;;;;;11.30;99.90;;;;;;5;36013810;41267561;-92
2021/08/25 04:56:05;;;;;;;;;;;11.40;99.90;;;;;;5;36013300;41266125;-90
2021/08/25 04:59:24;;;;;;;;;;;11.50;99.90;;;;;;5;36014795;41265256;-89
2021/08/25 05:02:39;;;;;;;;;;;11.50;99.90;;;;;;5;36014214;41266738;-90
2021/08/25 05:05:56;;;;;;;;;;;11.60;99.90;;;;;;5;36013353;41266105;-91
2021/08/25 05:09:15;;;;;;;;;;;11.60;99.90;;;;;;5;36014489;41266160;-89
2021/08/25 05:12:36;;;;;;;;;;;11.70;99.90;;;;;;5;36013728;42016188;-88
2021/08/25 05:15:50;;;;;;;;;;;11.70;99.90;;;;;;5;36014185;41266220;-91
2021/08/25 05:19:07;;;;;;;;;;;11.80;99.90;;;;;;5;36013630;41265781;-87
2021/08/25 05:22:27;;;;;;;;;;;11.90;99.90;;;;;;5;36013686;41266518;-90
2021/08/25 05:25:46;;;;;;;;;;;12.00;99.90;;;;;;5;36013289;41267041;-87
2021/08/25 05:29:00;;;;;;;;;;;12.00;99.90;;;;;;5;36014072;41267281;-88
2021/08/25 05:32:17;;;;;;;;;;;12.10;99.90;;;;;;5;36014723;41266406;-87
2021/08/25 05:35:37;;;;;;;;;;;12.20;99.90;;;;;;5;36014421;41266307;-88
2021/08/25 05:38:56;;;;;;;;;;;12.30;99.90;;;;;;5;36014543;41266534;-87
2021/08/25 05:42:10;;;;;;;;;;;12.40;99.90;;;;;;5;36015285;41265860;-87
2021/08/25 05:45:29;;;;;;;;;;;12.50;99.90;;;;;;5;36017995;42017023;-89
2021/08/25 05:48:48;;;;;;;;;;;12.60;99.90;;;;;;5;36013433;41268815;-87
2021/08/25 05:52:08;;;;;;;;;;;12.70;99.90;;;;;;5;36015020;41268199;-89
2021/08/25 05:55:22;;;;;;;;;;;12.80;99.90;;;;;;5;36015032;41266811;-87
2021/08/25 05:58:41;;;;;;;;;;;12.90;99.90;;;;;;5;36014160;41266240;-90
2021/08/25 06:02:00;;;;;;;;;;;13.10;99.90;;;;;;5;36012965;41267258;-90
2021/08/25 06:05:20;;;;;;;;;;;13.30;99.90;;;;;;5;36013292;41266008;-90
2021/08/25 06:08:34;;;;;;;;;;;13.60;99.90;;;;;;5;36013993;41265663;-90
2021/08/25 06:11:51;;;;;;;;;;;13.90;99.90;;;;;;5;36015797;41265475;-89
2021/08/25 06:15:11;;;;;;;;;;;14.10;99.90;;;;;;5;36014096;41267292;-90
2021/08/25 06:18:31;;;;;;;;;;;14.20;99.90;;;;;;5;36013338;42016292;-92
2021/08/25 06:21:46;;;;;;;;;;;14.40;99.90;;;;;;5;36014249;41267535;-87
2021/08/25 06:25:04;;;;;;;;;;;14.50;99.90;;;;;;5;36013821;41265562;-88
2021/08/25 06:28:23;;;;;;;;;;;14.70;99.90;;;;;;5;36013170;41267781;-89
2021/08/25 06:31:43;;;;;;;;;;;14.80;99.90;;;;;;5;36015448;41266791;-89
2021/08/25 06:34:57;;;;;;;;;;;15.00;99.90;;;;;;5;36013214;41267094;-88
2021/08/25 06:38:14;;;;;;;;;;;15.20;99.90;;;;;;5;36013854;41265849;-89
2021/08/25 06:41:34;;;;;;;;;;;15.40;99.90;;;;;;5;36013240;41266144;-88
2021/08/25 06:44:53;;;;;;;;;;;15.60;99.90;;;;;;5;36013436;41265865;-89
2021/08/25 06:48:08;;;;;;;;;;;15.80;99.90;;;;;;5;36014821;41267386;-88
2021/08/25 06:51:26;;;;;;;;;;;16.00;99.90;;;;;;5;36013211;42016996;-89
2021/08/25 06:54:46;;;;;;;;;;;16.10;99.90;;;;;;5;36014481;41266486;-88
2021/08/25 06:58:05;;;;;;;;;;;16.10;99.90;;;;;;5;36012771;41266215;-88
2021/08/25 07:01:21;;;;;;;;;;;16.20;99.90;;;;;;5;36014624;41266082;-88
2021/08/25 07:04:45;;;;;;;;;;;16.50;99.90;;;;;;5;36014753;41265361;-88
2021/08/25 07:08:04;;;;;;;;;;;17.00;99.90;;;;;;5;36014035;41265897;-88
2021/08/25 07:11:24;;;;;;;;;;;17.60;99.90;;;;;;5;36014300;41267141;-89
2021/08/25 07:14:38;;;;;;;;;;;18.40;98.30;;;;;;5;36013579;41266795;-88
2021/08/25 07:17:55;;;;;;;;;;;19.20;94.10;;;;;;5;36013867;41266264;-88
2021/08/25 07:21:14;;;;;;;;;;;20.00;91.50;;;;;;5;36013602;41265894;-90
2021/08/25 07:24:35;;;;;;;;;;;20.70;87.80;;;;;;5;36013449;42015520;-88
2021/08/25 07:27:49;;;;;;;;;;;21.50;85.40;;;;;;5;36014633;41265310;-89
2021/08/25 07:31:08;;;;;;;;;;;23.20;78.40;;;;;;5;36014168;41266268;-89
2021/08/25 07:34:27;;;;;;;;;;;25.10;69.80;;;;;;5;36014178;41265837;-89
2021/08/25 07:37:47;;;;;;;;;;;25.90;63.50;;;;;;5;36013714;41267245;-89
2021/08/25 07:41:02;;;;;;;;;;;25.10;62.00;;;;;;5;36013515;41266437;-89
2021/08/25 07:44:20;;;;;;;;;;;25.20;62.60;;;;;;5;36014280;41266268;-89
2021/08/25 07:47:40;;;;;;;;;;;26.60;59.40;;;;;;5;36014466;41266320;-89
2021/08/25 07:50:59;;;;;;;;;;;26.10;57.80;;;;;;5;36013979;41266345;-88
2021/08/25 07:54:13;;;;;;;;;;;26.20;59.40;;;;;;5;36013469;41266411;-89
2021/08/25 07:57:32;;;;;;;;;;;26.60;56.20;;;;;;5;36013235;42017127;-89
2021/08/25 08:00:52;;;;;;;;;;;26.00;56.40;;;;;;5;36013099;41267227;-88
2021/08/25 08:04:11;;;;;;;;;;;25.20;58.80;;;;;;5;36014049;41265768;-89
2021/08/25 08:07:25;;;;;;;;;;;25.40;59.50;;;;;;5;36013331;41266138;-89
2021/08/25 08:10:42;;;;;;;;;;;28.40;55.40;;;;;;5;36014197;41265275;-90
2021/08/25 08:14:03;;;;;;;;;;;30.80;50.60;;;;;;5;36013807;41267334;-90
2021/08/25 08:17:23;;;;;;;;;;;31.90;48.00;;;;;;5;36013294;41266058;-91
2021/08/25 08:20:37;;;;;;;;;;;33.20;45.80;;;;;;5;36014019;41265794;-91
2021/08/25 08:23:55;;;;;;;;;;;32.50;45.20;;;;;;5;36013889;41265600;-91
2021/08/25 08:27:15;;;;;;;;;;;31.30;46.10;;;;;;5;36013348;41266872;-91
2021/08/25 08:30:36;;;;;;;;;;;30.40;47.70;;;;;;5;36014135;42015944;-90
2021/08/25 08:33:50;;;;;;;;;;;30.70;47.20;;;;;;5;36013970;41268204;-91
2021/08/25 08:37:07;;;;;;;;;;;31.10;46.50;;;;;;5;36014264;41265107;-91
2021/08/25 08:40:26;;;;;;;;;;;31.90;45.20;;;;;;5;36013182;41267536;-89
2021/08/25 08:43:47;;;;;;;;;;;34.20;42.40;;;;;;5;36013591;41266862;-89
2021/08/25 08:47:01;;;;;;;;;;;36.70;39.90;;;;;;5;36014606;41266618;-90
2021/08/25 08:50:19;;;;;;;;;;;38.60;37.40;;;;;;5;36014651;41265905;-91
2021/08/25 08:53:38;;;;;;;;;;;39.40;35.50;;;;;;5;36014132;41265504;-90
2021/08/25 08:56:57;;;;;;;;;;;39.10;36.60;;;;;;5;36014354;41265989;-91
2021/08/25 09:00:12;;;;;;;;;;;40.80;35.00;;;;;;5;36014505;41266302;-91
2021/08/25 09:03:34;;;;;;;;;;;41.10;33.80;;;;;;5;36013649;42016947;-91
2021/08/25 09:06:54;;;;;;;;;;;37.80;35.40;;;;;;5;36013809;41265920;-91
2021/08/25 09:10:13;;;;;;;;;;;34.40;38.20;;;;;;5;36013274;41266320;-91
2021/08/25 09:13:34;;;;;;;;;;;32.10;40.70;;;;;;5;36013746;41266253;-91
2021/08/25 09:16:51;;;;;;;;;;;31.10;42.90;;;;;;5;36014230;41265261;-91
2021/08/25 09:20:11;;;;;;;;;;;32.80;41.40;;;;;;5;36013916;41265783;-91
2021/08/25 09:23:31;;;;;;;;;;;35.90;38.40;;;;;;5;36013979;41266318;-90
2021/08/25 09:27:04;;;;;;;;;;;38.30;36.10;;;;;;5;36013449;41266597;-90
2021/08/25 09:30:21;;;;;;;;;;;40.10;33.80;;;;;;5;36013601;41265762;-89
2021/08/25 09:33:45;;;;;;;;;;;39.40;33.80;;;;;;5;36013623;41266957;-91
2021/08/25 09:37:10;;;;;;;;;;;39.10;34.50;;;;;;5;36014773;42016108;-90
2021/08/25 09:40:24;;;;;;;;;;;39.60;32.90;;;;;;5;36013258;41266429;-91
2021/08/25 09:43:43;;;;;;;;;;;41.10;33.10;;;;;;5;36014033;41265906;-91
2021/08/25 09:47:03;;;;;;;;;;;40.90;32.90;;;;;;5;36014062;41266794;-91
2021/08/25 09:50:24;;;;;;;;;;;40.80;32.80;;;;;;5;36013123;41265984;-90
2021/08/25 09:53:38;;;;;;;;;;;41.90;31.80;;;;;;5;36013369;41266126;-89
2021/08/25 09:56:55;;;;;;;;;;;43.10;32.30;;;;;;5;36014700;41265608;-91
2021/08/25 10:00:15;;;;;;;;;;;44.50;30.90;;;;;;5;36014150;41266461;-91
2021/08/25 10:03:34;;;;;;;;;;;45.20;30.00;;;;;;5;36013848;41265190;-91
2021/08/25 10:06:50;;;;;;;;;;;45.20;29.30;;;;;;5;36015018;41265735;-91
2021/08/25 10:10:09;;;;;;;;;;;44.60;29.60;;;;;;5;36013124;42017154;-91
2021/08/25 10:13:29;;;;;;;;;;;44.70;29.30;;;;;;5;36013436;41266141;-89
2021/08/25 10:16:49;;;;;;;;;;;44.70;29.20;;;;;;5;36014465;41267076;-91
2021/08/25 10:20:22;;;;;;;;;;;44.10;29.70;;;;;;5;36013925;41265567;-89
2021/08/25 10:23:57;;;;;;;;;;;43.20;30.20;;;;;;5;36013090;41266913;-91
2021/08/25 10:27:17;;;;;;;;;;;43.70;29.80;;;;;;5;36013398;41267239;-89
2021/08/25 10:31:02;;;;;;;;;;;44.10;30.00;;;;;;5;36013736;41265794;-90
2021/08/25 10:34:38;;;;;;;;;;;44.10;29.70;;;;;;5;36014572;41265349;-88
2021/08/25 10:38:15;;;;;;;;;;;44.30;29.40;;;;;;5;36015117;41266709;-89
2021/08/25 10:41:43;;;;;;;;;;;45.10;29.40;;;;;;5;36014115;41266134;-89
2021/08/25 10:45:04;;;;;;;;;;;44.80;29.20;;;;;;5;36013690;42016934;-91
2021/08/25 10:48:35;;;;;;;;;;;44.40;29.40;;;;;;5;36013374;41266979;-91
2021/08/25 10:51:52;;;;;;;;;;;43.80;29.40;;;;;;5;36013610;41266681;-89
2021/08/25 10:55:11;;;;;;;;;;;43.90;29.60;;;;;;5;36016408;41266339;-89
2021/08/25 10:58:44;;;;;;;;;;;43.30;29.80;;;;;;5;36013222;41266151;-91
2021/08/25 11:01:59;;;;;;;;;;;42.20;30.60;;;;;;5;36015336;41267974;-90
2021/08/25 11:05:17;;;;;;;;;;;43.60;30.30;;;;;;5;36015004;41266978;-89
2021/08/25 11:08:36;;;;;;;;;;;43.20;30.50;;;;;;5;36013965;41268072;-89
2021/08/25 11:11:55;;;;;;;;;;;44.20;29.70;;;;;;5;36015330;41267306;-86
2021/08/25 11:15:10;;;;;;;;;;;44.00;29.40;;;;;;5;36013837;41266448;-92
2021/08/25 11:18:35;;;;;;;;;;;43.50;29.50;;;;;;5;36012838;42017113;-90
2021/08/25 11:21:55;;;;;;;;;;;41.10;30.80;;;;;;5;36014811;41266063;-88
2021/08/25 11:25:16;;;;;;;;;;;39.10;33.30;;;;;;5;36013024;41267460;-90
2021/08/25 11:28:30;;;;;;;;;;;37.40;34.00;;;;;;5;36014494;41266875;-91
2021/08/25 11:31:48;;;;;;;;;;;35.90;35.80;;;;;;5;36014051;41265873;-91
2021/08/25 11:35:08;;;;;;;;;;;34.60;37.60;;;;;;5;36014611;41265472;-91
2021/08/25 11:38:27;;;;;;;;;;;33.50;37.20;;;;;;5;36014094;41265996;-91
2021/08/25 11:41:45;;;;;;;;;;;33.30;37.90;;;;;;5;36013477;41265843;-90
2021/08/25 11:45:21;;;;;;;;;;;32.60;39.00;;;;;;5;36013187;41266241;-90
2021/08/25 11:48:41;;;;;;;;;;;32.00;41.40;;;;;;5;36014023;41266107;-91
2021/08/25 11:52:02;;;;;;;;;;;31.00;41.70;;;;;;5;36013134;42016249;-91
2021/08/25 11:55:17;;;;;;;;;;;29.80;43.20;;;;;;5;36014138;41266795;-91
2021/08/25 11:58:35;;;;;;;;;;;29.50;42.70;;;;;;5;36013276;41265528;-91
2021/08/25 12:02:54;;;;;;;;;;;29.30;43.30;;;;;;5;36013013;41266579;-91
2021/08/25 12:06:14;;;;;;;;;;;30.00;42.80;;;;;;5;36015519;41267257;-91
2021/08/25 12:09:30;;;;;;;;;;;30.60;42.20;;;;;;5;36014090;41267292;-91
2021/08/25 12:12:47;;;;;;;;;;;31.60;42.20;;;;;;5;36014963;41265064;-91
2021/08/25 12:16:07;;;;;;;;;;;33.60;40.30;;;;;;5;36013202;41266099;-91
2021/08/25 12:19:27;;;;;;;;;;;35.10;37.90;;;;;;5;36014602;41265526;-90
2021/08/25 12:22:41;;;;;;;;;;;35.00;36.60;;;;;;5;36013669;41266973;-90
2021/08/25 12:26:00;;;;;;;;;;;35.10;37.00;;;;;;5;36014319;42016070;-90
2021/08/25 12:29:27;;;;;;;;;;;35.30;37.40;;;;;;5;36014946;41265517;-91
2021/08/25 12:32:47;;;;;;;;;;;35.20;36.70;;;;;;5;36013591;41267343;-90
2021/08/25 12:36:20;;;;;;;;;;;34.60;37.70;;;;;;5;36015395;41265763;-91
2021/08/25 12:39:40;;;;;;;;;;;33.60;39.00;;;;;;5;36014149;41265893;-90
2021/08/25 12:43:00;;;;;;;;;;;32.60;40.20;;;;;;5;36014523;41266046;-90
2021/08/25 12:46:19;;;;;;;;;;;32.00;40.30;;;;;;5;36015155;41265049;-90
2021/08/25 12:49:34;;;;;;;;;;;31.60;41.90;;;;;;5;36014948;41266125;-91
2021/08/25 12:52:52;;;;;;;;;;;31.90;40.90;;;;;;5;36013371;41266012;-90
2021/08/25 12:56:11;;;;;;;;;;;33.00;41.50;;;;;;5;36014974;41265659;-91
2021/08/25 12:59:32;;;;;;;;;;;33.30;39.20;;;;;;5;36014731;42016267;-91
2021/08/25 13:02:46;;;;;;;;;;;33.20;39.20;;;;;;5;36013211;41266014;-91
2021/08/25 13:06:03;;;;;;;;;;;33.00;39.80;;;;;;5;36013537;41265840;-92
2021/08/25 13:09:23;;;;;;;;;;;32.30;40.30;;;;;;5;36014612;41267265;-91
2021/08/25 13:12:42;;;;;;;;;;;31.50;41.60;;;;;;5;36013964;41266001;-91
2021/08/25 13:15:56;;;;;;;;;;;31.10;42.30;;;;;;5;36013500;41266756;-91
2021/08/25 13:19:13;;;;;;;;;;;30.40;42.80;;;;;;5;36013311;41266583;-92
2021/08/25 13:22:34;;;;;;;;;;;29.70;45.10;;;;;;5;36013816;41266744;-92
2021/08/25 13:25:53;;;;;;;;;;;29.10;44.30;;;;;;5;36013349;41266234;-92
2021/08/25 13:29:07;;;;;;;;;;;28.60;46.30;;;;;;5;36013879;41265568;-91
2021/08/25 13:32:26;;;;;;;;;;;28.40;47.00;;;;;;5;36013582;42016676;-91
2021/08/25 13:35:46;;;;;;;;;;;28.40;46.40;;;;;;5;36013435;41265962;-91
2021/08/25 13:39:05;;;;;;;;;;;28.40;47.50;;;;;;5;36013358;41265766;-90
2021/08/25 13:42:19;;;;;;;;;;;27.80;48.10;;;;;;5;36014649;41265674;-90
2021/08/25 13:45:36;;;;;;;;;;;27.60;49.20;;;;;;5;36014719;41265497;-90
2021/08/25 13:48:56;;;;;;;;;;;27.30;50.40;;;;;;5;36016452;41266286;-91
2021/08/25 13:52:15;;;;;;;;;;;26.80;49.80;;;;;;5;36013435;41265990;-89
2021/08/25 13:55:30;;;;;;;;;;;26.20;51.20;;;;;;5;36014975;41265559;-89
2021/08/25 13:58:47;;;;;;;;;;;25.80;51.00;;;;;;5;36013781;41266204;-90
2021/08/25 14:02:07;;;;;;;;;;;25.50;52.60;;;;;;5;36014475;41267335;-91
2021/08/25 14:05:28;;;;;;;;;;;25.50;51.80;;;;;;5;36014132;42015472;-90
2021/08/25 14:08:42;;;;;;;;;;;25.30;52.00;;;;;;5;36014398;41266748;-91
2021/08/25 14:12:00;;;;;;;;;;;25.10;52.80;;;;;;5;36013637;41266472;-90
2021/08/25 14:15:19;;;;;;;;;;;25.00;53.30;;;;;;5;36015235;41266496;-90
2021/08/25 14:18:39;;;;;;;;;;;25.20;53.80;;;;;;5;36013316;41266031;-90
2021/08/25 14:21:53;;;;;;;;;;;25.40;54.10;;;;;;5;36014235;41265793;-90
2021/08/25 14:25:10;;;;;;;;;;;25.40;53.20;;;;;;5;36014863;41266183;-90
2021/08/25 14:28:29;;;;;;;;;;;25.40;52.80;;;;;;5;36014145;41267081;-90
2021/08/25 14:31:49;;;;;;;;;;;25.50;52.60;;;;;;5;36014081;41265938;-90
2021/08/25 14:35:03;;;;;;;;;;;25.30;52.00;;;;;;5;36013393;41266624;-90
2021/08/25 14:38:22;;;;;;;;;;;25.10;52.10;;;;;;5;36014335;42015629;-91
2021/08/25 14:41:41;;;;;;;;;;;24.90;53.10;;;;;;5;36013271;41266528;-91
2021/08/25 14:45:00;;;;;;;;;;;24.70;52.80;;;;;;5;36014307;41265680;-90
2021/08/25 14:48:14;;;;;;;;;;;24.60;53.40;;;;;;5;36015054;41265997;-90
2021/08/25 14:51:31;;;;;;;;;;;24.40;53.30;;;;;;5;36012984;41266508;-91
2021/08/25 14:54:51;;;;;;;;;;;24.40;53.50;;;;;;5;36013192;41267175;-90
2021/08/25 14:58:10;;;;;;;;;;;24.40;54.10;;;;;;5;36013668;41266176;-91
2021/08/25 15:01:24;;;;;;;;;;;24.50;54.60;;;;;;5;36014010;41266393;-90
2021/08/25 15:04:42;;;;;;;;;;;24.40;53.20;;;;;;5;36012700;41266657;-89
2021/08/25 15:08:01;;;;;;;;;;;24.30;54.80;;;;;;5;36015572;41267086;-88
2021/08/25 15:11:22;;;;;;;;;;;24.40;55.00;;;;;;5;36012739;42015924;-88
2021/08/25 15:14:36;;;;;;;;;;;24.20;54.50;;;;;;5;36015939;41266773;-89
2021/08/25 15:17:54;;;;;;;;;;;24.10;55.50;;;;;;5;36013686;41265442;-89
2021/08/25 15:21:13;;;;;;;;;;;24.00;56.20;;;;;;5;36014237;41265711;-88
2021/08/25 15:24:33;;;;;;;;;;;24.00;55.80;;;;;;5;36013321;41266994;-89
2021/08/25 15:27:47;;;;;;;;;;;24.00;55.30;;;;;;5;36014384;41266687;-89
2021/08/25 15:31:04;;;;;;;;;;;23.90;55.30;;;;;;5;36013312;41267756;-89
2021/08/25 15:34:23;;;;;;;;;;;23.90;55.30;;;;;;5;36014091;41266423;-89
2021/08/25 15:37:43;;;;;;;;;;;23.70;55.70;;;;;;5;36013781;41266068;-89
2021/08/25 15:40:57;;;;;;;;;;;23.60;55.30;;;;;;5;36014261;41266037;-89
2021/08/25 15:44:16;;;;;;;;;;;23.40;56.50;;;;;;5;36013972;42016312;-88
2021/08/25 15:47:37;;;;;;;;;;;23.40;55.30;;;;;;5;36014813;41266344;-88
2021/08/25 15:50:56;;;;;;;;;;;23.30;56.10;;;;;;5;36015939;41266521;-88
2021/08/25 15:54:14;;;;;;;;;;;23.20;57.90;;;;;;5;36014240;41265840;-89
2021/08/25 15:57:31;;;;;;;;;;;23.20;56.90;;;;;;5;36014154;41266243;-89
2021/08/25 16:00:51;;;;;;;;;;;23.10;56.40;;;;;;5;36014307;41265969;-89
2021/08/25 16:04:10;;;;;;;;;;;23.10;57.50;;;;;;5;36013698;41266529;-88
2021/08/25 16:07:24;;;;;;;;;;;23.00;57.70;;;;;;5;36013877;41265611;-89
2021/08/25 16:10:43;;;;;;;;;;;23.00;57.70;;;;;;5;36013772;41267663;-89
2021/08/25 16:14:02;;;;;;;;;;;23.00;59.50;;;;;;5;36013740;41267299;-89
2021/08/25 16:17:26;;;;;;;;;;;22.90;59.80;;;;;;5;36013369;42016758;-89
2021/08/25 16:20:40;;;;;;;;;;;22.90;58.10;;;;;;5;36013260;41266692;-88
2021/08/25 16:23:58;;;;;;;;;;;22.80;57.60;;;;;;5;36013298;41267250;-87
2021/08/25 16:27:17;;;;;;;;;;;22.70;58.80;;;;;;5;36017055;41267128;-89
2021/08/25 16:30:40;;;;;;;;;;;22.70;58.40;;;;;;5;36014052;41268482;-90
2021/08/25 16:33:54;;;;;;;;;;;22.60;57.90;;;;;;5;36013407;41267158;-89
2021/08/25 16:37:11;;;;;;;;;;;22.60;58.20;;;;;;5;36016892;41268627;-88
2021/08/25 16:40:32;;;;;;;;;;;22.50;59.10;;;;;;5;36013760;41267817;-87
2021/08/25 16:43:52;;;;;;;;;;;22.40;58.90;;;;;;5;36013754;41265832;-88
2021/08/25 16:47:06;;;;;;;;;;;22.30;59.50;;;;;;5;36015234;41265580;-88
2021/08/25 16:50:24;;;;;;;;;;;22.30;59.40;;;;;;5;36014105;42018389;-87
2021/08/25 16:53:44;;;;;;;;;;;22.20;59.60;;;;;;5;36013871;41267555;-88
2021/08/25 16:57:03;;;;;;;;;;;22.20;59.80;;;;;;5;36015145;41265482;-87
2021/08/25 17:00:19;;;;;;;;;;;22.10;60.50;;;;;;5;36013978;41266691;-88
2021/08/25 17:03:36;;;;;;;;;;;22.10;60.20;;;;;;5;36014502;41266538;-87
2021/08/25 17:06:55;;;;;;;;;;;21.90;60.80;;;;;;5;36012835;41267228;-88
2021/08/25 17:10:15;;;;;;;;;;;21.90;61.70;;;;;;5;36012990;41266705;-91
2021/08/25 17:13:30;;;;;;;;;;;21.90;62.30;;;;;;5;36013996;41265979;-91
2021/08/25 17:16:47;;;;;;;;;;;21.80;62.50;;;;;;5;36012991;41267388;-91
2021/08/25 17:20:07;;;;;;;;;;;21.70;62.90;;;;;;5;36013131;41267208;-90
2021/08/25 17:23:28;;;;;;;;;;;21.60;64.90;;;;;;5;36014112;42016844;-91
2021/08/25 17:26:43;;;;;;;;;;;21.40;65.60;;;;;;5;36015101;41266082;-92
2021/08/25 17:30:00;;;;;;;;;;;21.40;66.10;;;;;;5;36014127;41265420;-91
2021/08/25 17:33:19;;;;;;;;;;;21.20;66.70;;;;;;5;36014784;41265903;-90
2021/08/25 17:36:39;;;;;;;;;;;21.10;67.10;;;;;;5;36013864;41266538;-91
2021/08/25 17:39:53;;;;;;;;;;;21.00;68.40;;;;;;5;36014441;41265613;-92
2021/08/25 17:43:10;;;;;;;;;;;20.80;68.60;;;;;;5;36014791;41265882;-91
2021/08/25 17:46:30;;;;;;;;;;;20.60;69.00;;;;;;5;36013360;41266832;-92
2021/08/25 17:49:49;;;;;;;;;;;20.40;70.30;;;;;;5;36015142;41266241;-91
2021/08/25 17:53:04;;;;;;;;;;;20.20;70.80;;;;;;5;36014277;41266856;-92
2021/08/25 17:56:22;;;;;;;;;;;20.00;71.50;;;;;;5;36013404;42017813;-91
2021/08/25 17:59:42;;;;;;;;;;;19.80;72.40;;;;;;5;36015458;41267367;-91
2021/08/25 18:03:01;;;;;;;;;;;19.70;73.80;;;;;;5;36013735;41266962;-92
2021/08/25 18:06:15;;;;;;;;;;;19.50;73.00;;;;;;5;36014186;41266586;-94
2021/08/25 18:09:33;;;;;;;;;;;19.30;73.80;;;;;;5;36014232;41268803;-92
2021/08/25 18:12:52;;;;;;;;;;;19.20;73.80;;;;;;5;36015120;41266365;-91
2021/08/25 18:16:12;;;;;;;;;;;19.00;74.70;;;;;;5;36013377;41266390;-90
2021/08/25 18:19:26;;;;;;;;;;;18.80;74.80;;;;;;5;36013899;41266686;-92
2021/08/25 18:22:43;;;;;;;;;;;18.70;75.00;;;;;;5;36014778;41265530;-89
2021/08/25 18:26:03;;;;;;;;;;;18.50;75.80;;;;;;5;36013310;41266393;-89
2021/08/25 18:29:24;;;;;;;;;;;18.40;76.90;;;;;;5;36014792;42015694;-91
2021/08/25 18:32:38;;;;;;;;;;;18.20;77.30;;;;;;5;36013398;41266480;-87
2021/08/25 18:35:55;;;;;;;;;;;18.10;78.00;;;;;;5;36013835;41266294;-88
2021/08/25 18:39:14;;;;;;;;;;;18.00;78.90;;;;;;5;36014025;41266911;-88
2021/08/25 18:42:34;;;;;;;;;;;17.80;79.20;;;;;;5;36014458;41265361;-88
2021/08/25 18:45:48;;;;;;;;;;;17.70;80.40;;;;;;5;36015099;41265150;-88
2021/08/25 18:49:05;;;;;;;;;;;17.60;81.00;;;;;;5;36013586;41265460;-88
2021/08/25 18:52:24;;;;;;;;;;;17.50;82.00;;;;;;5;36013481;41266081;-88
2021/08/25 18:55:48;;;;;;;;;;;17.40;82.40;;;;;;5;36013130;41267184;-88
2021/08/25 18:59:03;;;;;;;;;;;17.40;82.90;;;;;;5;36013064;41265641;-89
2021/08/25 19:02:51;;;;;;;;;;;17.30;83.40;;;;;;5;36014709;42019924;-92
2021/08/25 19:06:10;;;;;;;;;;;17.30;84.10;;;;;;5;36017677;41272559;-88
2021/08/25 19:09:30;;;;;;;;;;;17.20;85.20;;;;;;5;36018178;41270259;-86
2021/08/25 19:12:44;;;;;;;;;;;17.20;85.80;;;;;;5;36019089;41271765;-87
2021/08/25 19:16:01;;;;;;;;;;;17.10;86.90;;;;;;5;36017153;41275169;-87
2021/08/25 19:19:21;;;;;;;;;;;17.10;87.10;;;;;;5;36017833;41269764;-88
2021/08/25 19:22:40;;;;;;;;;;;17.10;88.50;;;;;;5;36015857;41269899;-87
2021/08/25 19:25:54;;;;;;;;;;;17.00;89.70;;;;;;5;36017799;41270413;-88
2021/08/25 19:29:11;;;;;;;;;;;17.00;89.90;;;;;;5;36016769;41269866;-87
2021/08/25 19:32:31;;;;;;;;;;;17.00;90.20;;;;;;5;36016886;41268712;-88
2021/08/25 19:35:52;;;;;;;;;;;17.10;90.10;;;;;;5;36018803;42020564;-88
2021/08/25 19:39:06;;;;;;;;;;;17.10;90.20;;;;;;5;36018421;41271334;-87
2021/08/25 19:42:23;;;;;;;;;;;17.20;89.90;;;;;;5;36018169;41271995;-88
2021/08/25 19:45:43;;;;;;;;;;;17.20;89.60;;;;;;5;36018548;41271170;-87
2021/08/25 19:49:02;;;;;;;;;;;17.30;89.40;;;;;;5;36016841;41270944;-88
2021/08/25 19:52:16;;;;;;;;;;;17.30;89.50;;;;;;5;36017464;41271543;-87
2021/08/25 19:55:33;;;;;;;;;;;17.30;89.40;;;;;;5;36019056;41271970;-87
2021/08/25 19:58:53;;;;;;;;;;;17.40;89.30;;;;;;5;36020121;41271545;-87
2021/08/25 20:02:12;;;;;;;;;;;17.30;89.90;;;;;;5;36017897;41271997;-88
2021/08/25 20:05:28;;;;;;;;;;;17.30;90.10;;;;;;5;36019346;41272456;-88
2021/08/25 20:08:46;;;;;;;;;;;17.30;90.30;;;;;;5;36020435;42021128;-88
2021/08/25 20:12:06;;;;;;;;;;;17.30;90.10;;;;;;5;36018571;41273430;-87
2021/08/25 20:15:26;;;;;;;;;;;17.30;90.30;;;;;;5;36017335;41271878;-87
2021/08/25 20:18:40;;;;;;;;;;;17.30;90.40;;;;;;5;36019102;41272092;-88
2021/08/25 20:21:57;;;;;;;;;;;17.30;90.60;;;;;;5;36018863;41271616;-87
2021/08/25 20:25:18;;;;;;;;;;;17.40;90.70;;;;;;5;36019181;41271902;-87
2021/08/25 20:28:37;;;;;;;;;;;17.40;90.40;;;;;;5;36018906;41272034;-88
2021/08/25 20:31:51;;;;;;;;;;;17.40;89.40;;;;;;5;36018009;41270716;-87
2021/08/25 20:35:09;;;;;;;;;;;17.30;89.00;;;;;;5;36019381;41272710;-88
2021/08/25 20:38:28;;;;;;;;;;;17.20;90.80;;;;;;5;36019639;41271316;-88
2021/08/25 20:41:49;;;;;;;;;;;17.10;90.50;;;;;;5;36018509;42022712;-87
2021/08/25 20:45:04;;;;;;;;;;;17.00;91.20;;;;;;5;36017410;41272932;-88
2021/08/25 20:48:21;;;;;;;;;;;16.90;91.20;;;;;;5;36018928;41271698;-87
2021/08/25 20:51:41;;;;;;;;;;;16.80;91.40;;;;;;5;36017103;41269695;-88
2021/08/25 20:55:01;;;;;;;;;;;16.70;91.70;;;;;;5;36017979;41268206;-89
2021/08/25 20:58:15;;;;;;;;;;;16.70;92.00;;;;;;5;36016291;41266598;-88
2021/08/25 21:01:32;;;;;;;;;;;16.60;92.30;;;;;;5;36016618;41268467;-89
2021/08/25 21:04:51;;;;;;;;;;;16.60;92.80;;;;;;5;36017159;41269311;-87
2021/08/25 21:08:11;;;;;;;;;;;16.70;92.80;;;;;;5;36019038;41272899;-87
2021/08/25 21:11:25;;;;;;;;;;;16.70;92.70;;;;;;5;36015938;41268275;-87
2021/08/25 21:14:44;;;;;;;;;;;16.60;93.30;;;;;;5;36014656;42017989;-87